createdAt,value
2019-03-25T00:01:13.784Z,54.45
2019-03-25T00:03:45.363Z,54.84
2019-03-25T00:06:16.561Z,54.84
2019-03-25T00:08:47.796Z,55.61
2019-03-25T00:11:19.258Z,56.52
2019-03-25T00:13:50.484Z,55.30
2019-03-25T00:16:21.672Z,55.49
2019-03-25T00:18:52.891Z,54.79
2019-03-25T00:21:24.395Z,54.04
2019-03-25T00:23:55.595Z,53.96
2019-03-25T00:26:26.818Z,54.24
2019-03-25T00:28:57.999Z,53.08
2019-03-25T00:31:29.510Z,52.91
2019-03-25T00:34:00.749Z,52.60
2019-03-25T00:36:31.844Z,53.83
2019-03-25T00:39:03.335Z,54.04
2019-03-25T00:41:34.676Z,53.29
2019-03-25T00:44:06.053Z,53.87
2019-03-25T00:46:37.345Z,54.14
2019-03-25T00:49:08.545Z,54.48
2019-03-25T00:51:39.744Z,54.64
2019-03-25T00:54:10.952Z,55.06
2019-03-25T00:56:42.153Z,55.81
2019-03-25T00:59:13.918Z,55.88
2019-03-25T01:01:45.429Z,56.86
2019-03-25T01:04:16.627Z,56.36
2019-03-25T01:06:47.803Z,58.05
2019-03-25T01:09:19.070Z,58.25
2019-03-25T01:11:50.164Z,57.48
2019-03-25T01:14:21.348Z,57.09
2019-03-25T01:16:52.551Z,57.62
2019-03-25T01:19:23.826Z,57.92
2019-03-25T01:21:55.026Z,57.85
2019-03-25T01:24:26.206Z,58.53
2019-03-25T01:26:57.767Z,58.53
2019-03-25T01:29:29.077Z,59.36
2019-03-25T01:32:00.279Z,59.21
2019-03-25T01:34:31.560Z,59.56
2019-03-25T01:37:02.759Z,58.48
2019-03-25T01:39:33.960Z,59.84
2019-03-25T01:42:05.154Z,59.58
2019-03-25T01:44:36.403Z,59.78
2019-03-25T01:47:07.678Z,60.47
2019-03-25T01:49:38.957Z,62.55
2019-03-25T01:52:10.075Z,59.94
2019-03-25T01:54:41.272Z,62.86
2019-03-25T01:57:12.461Z,61.07
2019-03-25T01:59:43.992Z,61.85
2019-03-25T02:02:15.099Z,61.29
2019-03-25T02:04:46.237Z,61.67
2019-03-25T02:07:17.447Z,61.49
2019-03-25T02:09:48.820Z,61.71
2019-03-25T02:12:20.011Z,61.67
2019-03-25T02:14:51.202Z,62.21
2019-03-25T02:17:23.044Z,62.90
2019-03-25T02:19:54.114Z,62.91
2019-03-25T02:22:25.345Z,63.68
2019-03-25T02:24:56.476Z,62.93
2019-03-25T02:27:27.598Z,63.26
2019-03-25T02:29:58.747Z,62.96
2019-03-25T02:32:29.819Z,63.15
2019-03-25T02:35:01.198Z,63.23
2019-03-25T02:37:32.615Z,63.06
2019-03-25T02:40:03.654Z,63.31
2019-03-25T02:42:34.779Z,63.67
2019-03-25T02:45:06.660Z,64.35
2019-03-25T02:47:37.607Z,64.30
2019-03-25T02:50:08.975Z,65.65
2019-03-25T02:52:40.193Z,66.20
2019-03-25T02:55:11.398Z,66.33
2019-03-25T02:57:42.460Z,66.47
2019-03-25T03:00:14.056Z,66.36
2019-03-25T03:02:45.171Z,66.36
2019-03-25T03:05:16.401Z,66.54
2019-03-25T03:07:47.598Z,66.86
2019-03-25T03:10:18.844Z,67.06
2019-03-25T03:12:49.937Z,67.02
2019-03-25T03:15:21.355Z,67.04
2019-03-25T03:17:52.446Z,66.87
2019-03-25T03:20:23.569Z,66.83
2019-03-25T03:22:54.770Z,67.08
2019-03-25T03:25:26.201Z,67.10
2019-03-25T03:27:57.502Z,66.95
2019-03-25T03:30:28.916Z,66.87
2019-03-25T03:33:00.160Z,67.02
2019-03-25T03:35:31.225Z,67.06
2019-03-25T03:38:02.411Z,67.29
2019-03-25T03:40:33.532Z,67.13
2019-03-25T03:43:05.258Z,66.74
2019-03-25T03:45:36.357Z,66.86
2019-03-25T03:48:07.521Z,67.06
2019-03-25T03:50:39.281Z,67.04
2019-03-25T03:53:10.433Z,67.42
2019-03-25T03:55:42.131Z,67.60
2019-03-25T03:58:13.487Z,67.79
2019-03-25T04:00:44.569Z,67.80
2019-03-25T04:03:15.708Z,67.68
2019-03-25T04:05:46.797Z,67.14
2019-03-25T04:08:17.896Z,67.16
2019-03-25T04:10:49.050Z,66.75
2019-03-25T04:13:20.206Z,66.84
2019-03-25T04:15:51.244Z,66.94
2019-03-25T04:18:22.354Z,67.36
2019-03-25T04:20:53.407Z,67.60
2019-03-25T04:23:24.478Z,67.89
2019-03-25T04:25:55.778Z,67.99
2019-03-25T04:28:26.921Z,68.19
2019-03-25T04:30:58.093Z,68.61
2019-03-25T04:33:29.264Z,68.99
2019-03-25T04:36:00.307Z,69.33
2019-03-25T04:38:31.457Z,69.42
2019-03-25T04:41:02.596Z,69.79
2019-03-25T04:43:35.075Z,69.69
2019-03-25T04:46:06.270Z,69.88
2019-03-25T04:48:37.264Z,70.35
2019-03-25T04:51:08.908Z,70.24
2019-03-25T04:53:40.130Z,70.39
2019-03-25T04:56:11.202Z,70.35
2019-03-25T04:58:42.330Z,70.54
2019-03-25T05:01:13.475Z,70.70
2019-03-25T05:03:44.639Z,70.19
2019-03-25T05:06:15.708Z,70.09
2019-03-25T05:08:46.791Z,70.19
2019-03-25T05:11:17.935Z,69.83
2019-03-25T05:13:49.076Z,69.69
2019-03-25T05:16:20.235Z,70.04
2019-03-25T05:18:51.207Z,69.58
2019-03-25T05:21:22.515Z,69.26
2019-03-25T05:23:53.667Z,69.29
2019-03-25T05:26:24.754Z,69.21
2019-03-25T05:28:55.846Z,69.43
2019-03-25T05:31:26.976Z,68.62
2019-03-25T05:33:58.180Z,68.35
2019-03-25T05:36:29.393Z,68.25
2019-03-25T05:39:00.473Z,68.33
2019-03-25T05:41:31.624Z,68.33
2019-03-25T05:44:02.849Z,67.97
2019-03-25T05:46:33.815Z,68.63
2019-03-25T05:49:04.874Z,68.37
2019-03-25T05:51:35.960Z,68.93
2019-03-25T05:54:07.207Z,68.36
2019-03-25T05:56:38.423Z,68.69
2019-03-25T05:59:09.487Z,69.08
2019-03-25T06:01:40.505Z,69.43
2019-03-25T06:04:11.679Z,70.00
2019-03-25T06:06:42.803Z,70.04
2019-03-25T06:09:13.894Z,70.06
2019-03-25T06:11:45.290Z,69.73
2019-03-25T06:14:16.286Z,69.13
2019-03-25T06:16:47.356Z,69.01
2019-03-25T06:19:18.523Z,68.38
2019-03-25T06:21:49.621Z,68.53
2019-03-25T06:24:20.834Z,68.90
2019-03-25T06:26:51.964Z,68.55
2019-03-25T06:29:23.194Z,68.42
2019-03-25T06:31:54.270Z,68.89
2019-03-25T06:34:25.382Z,67.96
2019-03-25T06:36:56.887Z,67.90
2019-03-25T06:39:28.381Z,68.11
2019-03-25T06:42:00.274Z,68.34
2019-03-25T06:44:31.339Z,69.14
2019-03-25T06:47:02.640Z,68.87
2019-03-25T06:49:34.054Z,69.23
2019-03-25T06:52:05.432Z,68.48
2019-03-25T06:54:36.594Z,68.68
2019-03-25T06:57:08.059Z,68.46
2019-03-25T06:59:39.056Z,68.04
2019-03-25T07:02:10.229Z,67.35
2019-03-25T07:04:41.736Z,66.32
2019-03-25T07:07:12.874Z,65.91
2019-03-25T07:09:43.900Z,65.60
2019-03-25T07:12:15.215Z,65.64
2019-03-25T07:14:46.421Z,65.83
2019-03-25T07:17:18.820Z,66.28
2019-03-25T07:19:49.893Z,65.92
2019-03-25T07:22:20.963Z,65.37
2019-03-25T07:24:52.097Z,65.72
2019-03-25T07:27:23.238Z,67.55
2019-03-25T07:29:54.312Z,69.11
2019-03-25T07:32:25.551Z,69.48
2019-03-25T07:34:56.978Z,70.83
2019-03-25T07:37:28.037Z,71.93
2019-03-25T07:39:59.162Z,72.05
2019-03-25T07:42:30.362Z,73.11
2019-03-25T07:45:01.359Z,73.40
2019-03-25T07:47:32.816Z,72.90
2019-03-25T07:50:04.295Z,72.97
2019-03-25T07:52:35.421Z,73.39
2019-03-25T07:55:06.994Z,73.34
2019-03-25T07:57:47.683Z,74.68
2019-03-25T08:00:14.087Z,75.00
2019-03-25T08:02:46.173Z,76.05
2019-03-25T08:05:17.486Z,75.39
2019-03-25T08:07:48.526Z,75.04
2019-03-25T08:10:33.076Z,71.85
2019-03-25T08:13:04.335Z,68.01
2019-03-25T08:15:36.546Z,68.22
2019-03-25T08:18:08.191Z,64.50
2019-03-25T08:20:39.368Z,62.68
2019-03-25T08:23:10.472Z,58.81
2019-03-25T08:25:41.660Z,61.45
2019-03-25T08:28:13.008Z,56.78
2019-03-25T08:30:44.307Z,57.88
2019-03-25T08:33:15.526Z,56.66
2019-03-25T08:35:47.544Z,54.69
2019-03-25T08:38:19.015Z,56.96
2019-03-25T08:40:50.381Z,54.63
2019-03-25T08:43:21.572Z,52.82
2019-03-25T08:45:52.837Z,53.51
2019-03-25T08:48:24.049Z,53.80
2019-03-25T08:50:55.128Z,55.24
2019-03-25T08:53:26.255Z,52.85
2019-03-25T08:55:57.345Z,54.94
2019-03-25T08:58:28.528Z,56.62
2019-03-25T09:00:59.741Z,59.89
2019-03-25T09:03:30.940Z,61.56
2019-03-25T09:06:03.408Z,60.34
2019-03-25T09:08:34.527Z,58.91
2019-03-25T09:11:07.194Z,54.41
2019-03-25T09:13:38.450Z,52.89
2019-03-25T09:16:09.787Z,52.46
2019-03-25T09:18:40.960Z,51.89
2019-03-25T09:21:13.168Z,50.37
2019-03-25T09:23:44.754Z,48.73
2019-03-25T09:26:16.129Z,49.52
2019-03-25T09:28:47.580Z,50.07
2019-03-25T09:31:21.331Z,48.60
2019-03-25T09:33:52.722Z,47.72
2019-03-25T09:36:24.640Z,48.23
2019-03-25T09:38:56.624Z,52.28
2019-03-25T09:41:27.788Z,52.14
2019-03-25T09:43:58.856Z,50.18
2019-03-25T09:46:30.095Z,49.99
2019-03-25T09:49:01.356Z,48.82
2019-03-25T09:51:32.692Z,47.67
2019-03-25T09:54:04.235Z,48.36
2019-03-25T09:56:35.437Z,48.73
2019-03-25T09:59:07.019Z,48.89
2019-03-25T10:01:38.318Z,48.37
2019-03-25T10:04:09.574Z,48.14
2019-03-25T10:06:40.775Z,47.37
2019-03-25T10:09:13.033Z,47.37
2019-03-25T10:11:44.347Z,48.19
2019-03-25T10:14:15.541Z,49.94
2019-03-25T10:16:46.766Z,50.71
2019-03-25T10:19:17.937Z,53.08
2019-03-25T10:21:49.084Z,54.91
2019-03-25T10:24:27.580Z,57.45
2019-03-25T10:26:53.528Z,58.15
2019-03-25T10:29:24.638Z,58.55
2019-03-25T10:31:55.751Z,67.10
2019-03-25T10:34:27.595Z,71.85
2019-03-25T10:36:58.760Z,72.36
2019-03-25T10:39:29.900Z,72.11
2019-03-25T10:42:01.107Z,71.11
2019-03-25T10:44:32.233Z,70.91
2019-03-25T10:47:03.441Z,72.57
2019-03-25T10:49:35.892Z,73.08
2019-03-25T10:52:07.307Z,71.67
2019-03-25T10:54:38.657Z,66.56
2019-03-25T10:57:10.065Z,66.29
2019-03-25T10:59:40.996Z,65.82
2019-03-25T11:02:12.135Z,63.91
2019-03-25T11:04:43.297Z,60.43
2019-03-25T11:07:14.673Z,59.35
2019-03-25T11:09:46.238Z,58.39
2019-03-25T11:12:17.349Z,60.45
2019-03-25T11:14:48.704Z,63.76
2019-03-25T11:17:19.845Z,64.91
2019-03-25T11:19:50.991Z,68.19
2019-03-25T11:22:22.260Z,71.11
2019-03-25T11:24:53.449Z,69.79
2019-03-25T11:27:24.530Z,71.21
2019-03-25T11:29:55.694Z,72.59
2019-03-25T11:32:27.244Z,73.32
2019-03-25T11:34:58.655Z,73.22
2019-03-25T11:37:29.731Z,70.95
2019-03-25T11:40:00.908Z,71.22
2019-03-25T11:42:32.160Z,71.09
2019-03-25T11:45:03.679Z,68.22
2019-03-25T11:47:34.896Z,68.73
2019-03-25T11:50:06.420Z,69.44
2019-03-25T11:52:37.763Z,67.51
2019-03-25T11:55:09.655Z,67.51
2019-03-25T11:57:40.926Z,64.94
2019-03-25T12:00:13.008Z,66.13
2019-03-25T12:02:44.195Z,65.20
2019-03-25T12:05:15.479Z,65.77
2019-03-25T12:07:47.024Z,64.99
2019-03-25T12:10:18.424Z,66.59
2019-03-25T12:12:49.589Z,63.60
2019-03-25T12:15:20.772Z,65.21
2019-03-25T12:17:51.942Z,64.78
2019-03-25T12:20:23.014Z,64.15
2019-03-25T12:22:54.179Z,61.30
2019-03-25T12:25:25.359Z,62.33
2019-03-25T12:27:56.628Z,64.67
2019-03-25T12:30:27.807Z,61.12
2019-03-25T12:33:04.032Z,61.09
2019-03-25T12:35:31.868Z,61.45
2019-03-25T12:38:02.973Z,62.67
2019-03-25T12:40:34.460Z,61.16
2019-03-25T12:43:05.959Z,60.89
2019-03-25T12:45:37.106Z,61.57
2019-03-25T12:48:08.301Z,60.89
2019-03-25T12:50:39.519Z,59.62
2019-03-25T12:53:10.901Z,58.16
2019-03-25T12:55:42.062Z,56.64
2019-03-25T12:58:13.301Z,57.84
2019-03-25T13:00:45.812Z,57.93
2019-03-25T13:03:17.406Z,57.79
2019-03-25T13:05:48.630Z,61.13
2019-03-25T13:08:19.780Z,60.39
2019-03-25T13:10:51.253Z,63.57
2019-03-25T13:13:22.398Z,68.61
2019-03-25T13:15:53.613Z,71.95
2019-03-25T13:18:24.784Z,74.92
2019-03-25T13:20:56.406Z,75.90
2019-03-25T13:23:27.586Z,74.71
2019-03-25T13:25:58.690Z,74.67
2019-03-25T13:28:29.732Z,74.39
2019-03-25T13:31:00.886Z,74.71
2019-03-25T13:33:32.074Z,73.34
2019-03-25T13:36:03.299Z,73.32
2019-03-25T13:38:34.896Z,71.84
2019-03-25T13:41:06.095Z,71.20
2019-03-25T13:43:37.605Z,68.77
2019-03-25T13:46:08.827Z,69.95
2019-03-25T13:48:40.032Z,67.14
2019-03-25T13:51:11.594Z,65.98
2019-03-25T13:53:42.764Z,64.73
2019-03-25T13:56:14.456Z,63.92
2019-03-25T13:58:45.639Z,65.29
2019-03-25T14:01:17.065Z,64.62
2019-03-25T14:03:48.190Z,64.28
2019-03-25T14:06:19.457Z,64.27
2019-03-25T14:08:50.624Z,63.49
2019-03-25T14:11:21.943Z,63.88
2019-03-25T14:13:53.124Z,64.20
2019-03-25T14:16:24.894Z,64.16
2019-03-25T14:18:56.388Z,62.34
2019-03-25T14:21:28.042Z,63.18
2019-03-25T14:23:59.042Z,63.55
2019-03-25T14:26:30.225Z,64.08
2019-03-25T14:29:01.331Z,63.74
2019-03-25T14:31:32.559Z,63.55
2019-03-25T14:34:04.127Z,64.74
2019-03-25T14:36:35.522Z,62.80
2019-03-25T14:39:07.786Z,63.24
2019-03-25T14:41:38.989Z,60.64
2019-03-25T14:44:10.156Z,60.40
2019-03-25T14:46:41.402Z,60.61
2019-03-25T14:49:12.616Z,59.78
2019-03-25T14:51:43.912Z,60.19
2019-03-25T14:54:15.054Z,59.17
2019-03-25T14:56:47.356Z,59.94
2019-03-25T14:59:18.610Z,60.25
2019-03-25T15:01:49.757Z,59.63
2019-03-25T15:04:20.945Z,59.86
2019-03-25T15:06:52.119Z,60.35
2019-03-25T15:09:23.603Z,60.65
2019-03-25T15:11:55.138Z,60.27
2019-03-25T15:14:26.588Z,60.67
2019-03-25T15:16:57.746Z,61.44
2019-03-25T15:19:29.054Z,62.23
2019-03-25T15:22:00.614Z,60.64
2019-03-25T15:24:31.759Z,61.73
2019-03-25T15:27:03.047Z,61.58
2019-03-25T15:29:34.309Z,62.08
2019-03-25T15:32:05.990Z,62.71
2019-03-25T15:34:37.314Z,61.33
2019-03-25T15:37:09.319Z,61.52
2019-03-25T15:39:46.765Z,61.30
2019-03-25T15:42:13.559Z,62.11
2019-03-25T15:44:45.056Z,61.39
2019-03-25T15:47:16.900Z,60.48
2019-03-25T15:49:48.124Z,60.79
2019-03-25T15:52:19.228Z,60.51
2019-03-25T15:54:50.491Z,60.51
2019-03-25T15:57:22.043Z,62.36
2019-03-25T15:59:53.228Z,61.18
2019-03-25T16:02:24.506Z,62.71
2019-03-25T16:04:55.615Z,61.21
2019-03-25T16:07:27.244Z,62.00
2019-03-25T16:09:58.723Z,62.18
2019-03-25T16:12:29.918Z,61.51
2019-03-25T16:15:01.116Z,60.78
2019-03-25T16:17:32.590Z,60.30
2019-03-25T16:20:03.829Z,60.80
2019-03-25T16:22:34.992Z,59.95
2019-03-25T16:25:06.787Z,59.89
2019-03-25T16:27:37.974Z,60.31
2019-03-25T16:30:09.352Z,61.66
2019-03-25T16:32:40.560Z,66.88
2019-03-25T16:35:11.755Z,69.60
2019-03-25T16:37:43.327Z,70.71
2019-03-25T16:40:14.436Z,71.42
2019-03-25T16:42:45.575Z,72.79
2019-03-25T16:45:16.981Z,72.28
2019-03-25T16:47:48.244Z,72.40
2019-03-25T16:50:19.579Z,72.50
2019-03-25T16:52:50.817Z,73.92
2019-03-25T16:55:22.590Z,72.59
2019-03-25T16:57:53.807Z,73.60
2019-03-25T17:00:27.688Z,73.14
2019-03-25T17:02:58.053Z,72.09
2019-03-25T17:05:29.271Z,72.26
2019-03-25T17:08:00.366Z,72.56
2019-03-25T17:10:31.441Z,71.97
2019-03-25T17:13:02.820Z,72.67
2019-03-25T17:15:33.995Z,72.61
2019-03-25T17:18:05.508Z,72.54
2019-03-25T17:20:36.660Z,74.53
2019-03-25T17:23:08.602Z,74.34
2019-03-25T17:25:39.785Z,73.95
2019-03-25T17:28:11.043Z,74.03
2019-03-25T17:30:42.226Z,75.88
2019-03-25T17:33:13.467Z,75.38
2019-03-25T17:35:44.710Z,74.10
2019-03-25T17:38:16.274Z,75.23
2019-03-25T17:40:47.442Z,76.80
2019-03-25T17:43:18.698Z,77.54
2019-03-25T17:45:49.877Z,77.20
2019-03-25T17:48:21.764Z,77.04
2019-03-25T17:50:53.123Z,76.59
2019-03-25T17:53:25.030Z,76.35
2019-03-25T17:55:56.270Z,76.42
2019-03-25T17:58:27.759Z,77.18
2019-03-25T18:01:19.362Z,77.35
2019-03-25T18:03:51.749Z,75.83
2019-03-25T18:06:23.951Z,75.01
2019-03-25T18:08:56.104Z,75.21
2019-03-25T18:11:28.764Z,74.63
2019-03-25T18:14:00.965Z,75.43
2019-03-25T18:16:32.137Z,76.37
2019-03-25T18:19:03.234Z,77.08
2019-03-25T18:21:34.786Z,75.14
2019-03-25T18:24:05.986Z,75.08
2019-03-25T18:26:37.299Z,74.79
2019-03-25T18:29:08.850Z,74.87
2019-03-25T18:31:43.818Z,76.56
2019-03-25T18:34:13.152Z,75.99
2019-03-25T18:36:44.432Z,76.39
2019-03-25T18:39:15.921Z,76.87
2019-03-25T18:41:47.455Z,76.04
2019-03-25T18:44:18.693Z,74.36
2019-03-25T18:46:49.831Z,73.70
2019-03-25T18:49:21.047Z,73.54
2019-03-25T18:51:52.293Z,72.48
2019-03-25T18:54:23.604Z,72.75
2019-03-25T18:56:55.210Z,73.37
2019-03-25T18:59:26.484Z,73.22
2019-03-25T19:01:58.124Z,73.53
2019-03-25T19:04:29.193Z,74.05
2019-03-25T19:07:00.564Z,74.42
2019-03-25T19:09:31.922Z,73.65
2019-03-25T19:12:03.119Z,74.15
2019-03-25T19:14:34.374Z,73.90
2019-03-25T19:17:05.732Z,73.62
2019-03-25T19:19:36.944Z,73.08
2019-03-25T19:22:08.185Z,72.43
2019-03-25T19:24:39.263Z,73.33
2019-03-25T19:27:10.479Z,72.82
2019-03-25T19:29:42.011Z,73.28
2019-03-25T19:32:13.401Z,73.10
2019-03-25T19:34:44.695Z,71.73
2019-03-25T19:37:19.067Z,72.42
2019-03-25T19:39:50.181Z,72.05
2019-03-25T19:42:21.249Z,71.68
2019-03-25T19:44:52.344Z,72.35
2019-03-25T19:47:23.428Z,72.95
2019-03-25T19:49:54.909Z,72.65
2019-03-25T19:52:26.072Z,72.55
2019-03-25T19:54:58.079Z,72.50
2019-03-25T19:57:29.808Z,72.01
2019-03-25T20:00:01.253Z,71.24
2019-03-25T20:02:32.326Z,71.07
2019-03-25T20:05:03.674Z,71.65
2019-03-25T20:07:34.825Z,70.88
2019-03-25T20:10:06.579Z,71.01
2019-03-25T20:12:38.013Z,70.78
2019-03-25T20:15:09.386Z,70.88
2019-03-25T20:17:40.575Z,71.10
2019-03-25T20:20:11.930Z,71.56
2019-03-25T20:22:43.061Z,70.81
2019-03-25T20:25:14.145Z,71.49
2019-03-25T20:27:45.355Z,71.93
2019-03-25T20:30:16.687Z,71.33
2019-03-25T20:32:47.982Z,72.69
2019-03-25T20:35:19.132Z,72.23
2019-03-25T20:37:50.344Z,72.79
2019-03-25T20:40:21.572Z,73.07
2019-03-25T20:42:53.359Z,73.69
2019-03-25T20:45:24.560Z,74.03
2019-03-25T20:47:55.846Z,73.94
2019-03-25T20:50:27.113Z,74.41
2019-03-25T20:52:58.255Z,74.02
2019-03-25T20:55:29.398Z,74.15
2019-03-25T20:58:00.692Z,74.58
2019-03-25T21:00:55.576Z,74.70
2019-03-25T21:03:26.890Z,75.21
2019-03-25T21:05:58.153Z,74.87
2019-03-25T21:08:29.314Z,75.01
2019-03-25T21:11:00.434Z,74.93
2019-03-25T21:13:31.726Z,75.43
2019-03-25T21:16:03.321Z,75.02
2019-03-25T21:18:34.590Z,74.82
2019-03-25T21:21:05.827Z,75.39
2019-03-25T21:23:37.094Z,75.10
2019-03-25T21:26:10.940Z,75.54
2019-03-25T21:28:41.772Z,74.78
2019-03-25T21:31:13.530Z,74.85
2019-03-25T21:33:44.673Z,74.96
2019-03-25T21:36:15.948Z,75.01
2019-03-25T21:38:47.150Z,74.94
2019-03-25T21:41:18.256Z,75.46
2019-03-25T21:43:49.555Z,75.15
2019-03-25T21:46:20.711Z,75.54
2019-03-25T21:48:52.065Z,75.28
2019-03-25T21:51:23.113Z,75.58
2019-03-25T21:53:54.399Z,75.43
2019-03-25T21:56:25.695Z,75.19
2019-03-25T21:58:56.851Z,75.24
2019-03-25T22:01:27.953Z,75.61
2019-03-25T22:03:59.464Z,74.64
2019-03-25T22:06:30.633Z,74.62
2019-03-25T22:09:01.879Z,74.47
2019-03-25T22:11:33.064Z,74.52
2019-03-25T22:14:04.261Z,73.90
2019-03-25T22:16:35.486Z,73.82
2019-03-25T22:19:06.576Z,74.02
2019-03-25T22:21:37.637Z,73.65
2019-03-25T22:24:08.773Z,72.79
2019-03-25T22:26:39.938Z,73.23
2019-03-25T22:29:11.125Z,73.26
2019-03-25T22:31:42.227Z,73.27
2019-03-25T22:34:13.629Z,73.47
2019-03-25T22:36:44.829Z,72.86
2019-03-25T22:39:15.927Z,73.37
2019-03-25T22:41:47.186Z,73.19
2019-03-25T22:44:18.375Z,72.78
2019-03-25T22:46:49.849Z,72.24
2019-03-25T22:49:21.018Z,72.69
2019-03-25T22:51:52.101Z,72.16
2019-03-25T22:54:23.490Z,72.04
2019-03-25T22:56:54.579Z,72.05
2019-03-25T22:59:25.694Z,71.35
2019-03-25T23:01:56.822Z,72.02
2019-03-25T23:04:27.961Z,72.42
2019-03-25T23:06:59.138Z,72.30
2019-03-25T23:09:30.218Z,71.32
2019-03-25T23:12:01.614Z,71.05
2019-03-25T23:14:32.711Z,71.01
2019-03-25T23:17:03.804Z,71.34
2019-03-25T23:19:35.016Z,71.38
2019-03-25T23:22:06.372Z,71.40
2019-03-25T23:24:37.545Z,71.30
2019-03-25T23:27:08.721Z,71.14
2019-03-25T23:29:39.884Z,71.28
2019-03-25T23:32:10.917Z,71.25
2019-03-25T23:34:42.024Z,71.64
2019-03-25T23:37:13.188Z,71.30
2019-03-25T23:39:44.480Z,71.85
2019-03-25T23:42:15.750Z,71.96
2019-03-25T23:44:47.206Z,71.97
2019-03-25T23:47:18.736Z,71.92
2019-03-25T23:49:49.805Z,72.25
2019-03-25T23:52:21.397Z,72.34
2019-03-25T23:54:52.752Z,72.83
2019-03-25T23:57:23.942Z,72.22
2019-03-25T23:59:55.195Z,72.54
